Woodbourne, New York
Current Conditions -  °F | °C
As of 1:35 AM on Thursday 29 Jan 2015 (Local Time) from KMSV Reporting Station
Clear Clear  
Wind Chill: -2°   Ceiling: Unl
Heat Index: 10°   Visibility: 10mi
Dew Point:   Wind: 8mph
Humidity: 67%   Direction: 310°NW
Pressure: 30.21"   Gusts: NA
Location:  41.76°N, 74.59°W
Report Text: KMSV 290635Z AUTO 31007KT 10SM CLR M12/M17 A3021 RMK AO1
Loading
Personal Weather Stations






























Interactive Weather Map New forecast layout! Learn more

10-Day Weather Forecast

Advertisements
Track Severe Weather on mobile